createdAt,value
2022-10-01T00:00:48.458Z,73.71
2022-10-01T00:01:48.494Z,73.71
2022-10-01T00:02:48.488Z,73.60
2022-10-01T00:03:48.439Z,73.60
2022-10-01T00:04:48.423Z,73.50
2022-10-01T00:05:48.454Z,73.30
2022-10-01T00:06:48.416Z,73.10
2022-10-01T00:07:48.431Z,73.10
2022-10-01T00:08:48.362Z,73.06
2022-10-01T00:09:48.334Z,72.96
2022-10-01T00:10:48.325Z,72.65
2022-10-01T00:11:48.352Z,72.24
2022-10-01T00:12:48.337Z,72.04
2022-10-01T00:13:48.343Z,72.11
2022-10-01T00:14:48.315Z,71.91
2022-10-01T00:15:48.296Z,71.80
2022-10-01T00:16:48.482Z,71.91
2022-10-01T00:17:48.272Z,72.00
2022-10-01T00:18:48.426Z,71.91
2022-10-01T00:19:48.307Z,71.70
2022-10-01T00:20:48.266Z,71.50
2022-10-01T00:21:48.212Z,71.19
2022-10-01T00:22:48.223Z,71.19
2022-10-01T00:23:48.208Z,71.19
2022-10-01T00:24:48.250Z,71.29
2022-10-01T00:25:48.237Z,71.39
2022-10-01T00:26:48.202Z,71.39
2022-10-01T00:27:48.193Z,71.60
2022-10-01T00:28:48.130Z,71.60
2022-10-01T00:29:48.115Z,71.50
2022-10-01T00:30:48.243Z,71.60
2022-10-01T00:31:48.252Z,71.60
2022-10-01T00:32:48.104Z,71.70
2022-10-01T00:33:48.807Z,71.70
2022-10-01T00:34:48.117Z,71.70
2022-10-01T00:35:48.148Z,71.80
2022-10-01T00:36:48.094Z,71.60
2022-10-01T00:37:48.427Z,71.60
2022-10-01T00:38:48.128Z,71.70
2022-10-01T00:39:48.048Z,71.80
2022-10-01T00:40:48.002Z,71.80
2022-10-01T00:41:48.029Z,71.91
2022-10-01T00:42:48.176Z,71.91
2022-10-01T00:43:48.005Z,71.91
2022-10-01T00:44:47.998Z,71.91
2022-10-01T00:45:48.222Z,72.00
2022-10-01T00:46:47.985Z,71.91
2022-10-01T00:47:47.957Z,72.00
2022-10-01T00:48:47.917Z,72.11
2022-10-01T00:49:47.918Z,72.31
2022-10-01T00:50:48.352Z,72.11
2022-10-01T00:51:47.895Z,72.11
2022-10-01T00:52:47.927Z,72.11
2022-10-01T00:53:47.900Z,72.00
2022-10-01T00:54:47.893Z,72.11
2022-10-01T00:55:47.895Z,72.11
2022-10-01T00:56:47.835Z,72.21
2022-10-01T00:57:47.862Z,72.14
2022-10-01T00:58:47.857Z,72.31
2022-10-01T00:59:47.844Z,72.24
2022-10-01T01:00:47.855Z,72.11
2022-10-01T01:01:47.897Z,72.11
2022-10-01T01:02:47.865Z,72.11
2022-10-01T01:03:47.824Z,72.11
2022-10-01T01:04:47.794Z,72.00
2022-10-01T01:05:47.758Z,72.11
2022-10-01T01:06:47.767Z,72.11
2022-10-01T01:07:47.783Z,72.31
2022-10-01T01:08:47.719Z,72.21
2022-10-01T01:09:47.725Z,72.21
2022-10-01T01:10:47.722Z,72.31
2022-10-01T01:11:47.748Z,72.11
2022-10-01T01:12:47.704Z,72.31
2022-10-01T01:13:47.689Z,72.52
2022-10-01T01:14:47.697Z,72.55
2022-10-01T01:15:47.722Z,72.55
2022-10-01T01:16:47.668Z,72.55
2022-10-01T01:17:47.667Z,72.55
2022-10-01T01:18:47.661Z,72.65
2022-10-01T01:19:47.596Z,72.55
2022-10-01T01:20:47.612Z,72.55
2022-10-01T01:21:47.609Z,72.55
2022-10-01T01:22:47.584Z,72.52
2022-10-01T01:23:47.602Z,72.55
2022-10-01T01:24:47.531Z,72.52
2022-10-01T01:25:47.553Z,72.31
2022-10-01T01:26:47.523Z,72.41
2022-10-01T01:27:47.562Z,72.41
2022-10-01T01:28:47.516Z,72.52
2022-10-01T01:29:47.517Z,72.41
2022-10-01T01:30:47.541Z,72.52
2022-10-01T01:31:47.519Z,72.62
2022-10-01T01:32:47.593Z,72.62
2022-10-01T01:33:47.481Z,72.52
2022-10-01T01:34:47.453Z,72.52
2022-10-01T01:35:47.449Z,72.31
2022-10-01T01:36:47.450Z,72.31
2022-10-01T01:37:47.411Z,72.21
2022-10-01T01:38:47.402Z,72.31
2022-10-01T01:39:47.454Z,72.21
2022-10-01T01:40:47.389Z,72.31
2022-10-01T01:41:47.349Z,72.41
2022-10-01T01:42:47.378Z,72.52
2022-10-01T01:43:47.549Z,72.21
2022-10-01T01:44:47.329Z,72.31
2022-10-01T01:45:47.404Z,72.31
2022-10-01T01:46:47.326Z,72.11
2022-10-01T01:47:47.317Z,72.21
2022-10-01T01:48:47.299Z,72.31
2022-10-01T01:49:47.304Z,72.31
2022-10-01T01:50:47.397Z,72.31
2022-10-01T01:51:47.261Z,72.31
2022-10-01T01:52:47.559Z,72.31
2022-10-01T01:53:47.253Z,72.11
2022-10-01T01:54:47.225Z,71.77
2022-10-01T01:55:47.216Z,71.77
2022-10-01T01:56:47.257Z,71.67
2022-10-01T01:57:47.425Z,71.67
2022-10-01T01:58:47.210Z,71.67
2022-10-01T01:59:47.173Z,71.36
2022-10-01T02:00:47.147Z,71.36
2022-10-01T02:01:47.298Z,71.26
2022-10-01T02:02:47.295Z,71.46
2022-10-01T02:03:47.156Z,71.67
2022-10-01T02:04:47.151Z,71.56
2022-10-01T02:05:47.132Z,71.56
2022-10-01T02:06:47.072Z,71.67
2022-10-01T02:07:47.086Z,71.56
2022-10-01T02:08:47.122Z,71.46
2022-10-01T02:09:47.050Z,71.46
2022-10-01T02:10:47.047Z,71.56
2022-10-01T02:11:47.059Z,71.77
2022-10-01T02:12:47.498Z,71.56
2022-10-01T02:13:47.050Z,71.26
2022-10-01T02:14:47.011Z,71.23
2022-10-01T02:15:47.154Z,71.33
2022-10-01T02:16:47.019Z,71.12
2022-10-01T02:17:46.950Z,71.43
2022-10-01T02:18:47.002Z,71.33
2022-10-01T02:19:46.957Z,71.12
2022-10-01T02:20:47.021Z,71.12
2022-10-01T02:21:46.955Z,71.53
2022-10-01T02:22:46.946Z,71.63
2022-10-01T02:23:46.932Z,71.84
2022-10-01T02:24:46.963Z,71.94
2022-10-01T02:25:46.879Z,72.04
2022-10-01T02:26:46.975Z,72.34
2022-10-01T02:27:46.894Z,72.86
2022-10-01T02:28:46.872Z,72.65
2022-10-01T02:29:47.273Z,72.86
2022-10-01T02:30:46.972Z,72.96
2022-10-01T02:31:46.821Z,73.26
2022-10-01T02:32:46.820Z,73.30
2022-10-01T02:36:08.951Z,73.91
2022-10-01T02:39:30.949Z,75.13
2022-10-01T02:40:30.960Z,75.13
2022-10-01T02:41:31.353Z,75.44
2022-10-01T02:42:30.997Z,75.44
2022-10-01T02:43:30.929Z,76.15
2022-10-01T02:44:30.894Z,76.59
2022-10-01T02:45:30.961Z,77.31
2022-10-01T02:46:30.866Z,77.82
2022-10-01T02:47:30.824Z,79.25
2022-10-01T02:48:30.834Z,80.00
2022-10-01T02:49:31.146Z,80.71
2022-10-01T02:50:30.845Z,81.43
2022-10-01T02:51:31.023Z,82.28
2022-10-01T02:52:30.789Z,82.89
2022-10-01T02:53:30.890Z,83.71
2022-10-01T02:54:30.750Z,85.08
2022-10-01T02:55:30.746Z,85.59
2022-10-01T02:56:30.722Z,85.69
2022-10-01T02:57:30.728Z,86.20
2022-10-01T02:58:30.780Z,86.65
2022-10-01T02:59:30.742Z,86.96
2022-10-01T03:00:30.797Z,87.47
2022-10-01T03:01:30.850Z,87.37
2022-10-01T03:02:30.860Z,87.88
2022-10-01T03:03:30.766Z,88.18
2022-10-01T03:04:30.745Z,88.39
2022-10-01T03:05:30.713Z,88.74
2022-10-01T03:06:30.764Z,89.35
2022-10-01T03:07:30.666Z,89.76
2022-10-01T03:08:30.672Z,90.17
2022-10-01T03:09:30.682Z,90.58
2022-10-01T03:10:30.633Z,91.03
2022-10-01T03:11:30.995Z,91.33
2022-10-01T03:12:30.565Z,91.54
2022-10-01T03:13:30.627Z,91.85
2022-10-01T03:14:30.609Z,92.36
2022-10-01T03:15:30.634Z,92.46
2022-10-01T03:16:30.615Z,92.87
2022-10-01T03:17:30.526Z,93.18
2022-10-01T03:18:30.537Z,93.59
2022-10-01T03:19:30.533Z,93.84
2022-10-01T03:20:30.535Z,93.93
2022-10-01T03:21:30.977Z,94.24
2022-10-01T03:22:30.517Z,94.45
2022-10-01T03:23:30.518Z,94.55
2022-10-01T03:24:43.758Z,94.75
2022-10-01T03:25:31.233Z,95.06
2022-10-01T03:26:41.881Z,95.37
2022-10-01T03:27:31.092Z,95.67
2022-10-01T03:28:31.097Z,95.98
2022-10-01T03:29:31.176Z,95.98
2022-10-01T03:30:31.121Z,96.19
2022-10-01T03:31:31.212Z,96.44
2022-10-01T03:32:31.027Z,96.54
2022-10-01T03:33:31.039Z,96.64
2022-10-01T03:34:30.886Z,96.74
2022-10-01T03:35:30.874Z,96.74
2022-10-01T03:36:31.077Z,96.95
2022-10-01T03:37:31.074Z,97.15
2022-10-01T03:38:30.980Z,97.25
2022-10-01T03:39:31.097Z,97.36
2022-10-01T03:40:32.292Z,97.56
2022-10-01T03:41:31.490Z,97.66
2022-10-01T03:42:32.224Z,97.87
2022-10-01T03:43:31.334Z,97.97
2022-10-01T04:05:30.191Z,98.99
2022-10-01T04:13:58.737Z,99.76
2022-10-01T04:14:57.895Z,99.86
2022-10-01T04:15:58.161Z,99.96
2022-10-01T04:16:57.686Z,99.96
2022-10-01T04:17:57.678Z,99.99
2022-10-01T04:18:58.067Z,99.99
2022-10-01T04:19:57.554Z,99.99
2022-10-01T04:20:57.534Z,99.99
2022-10-01T04:21:57.607Z,99.99
2022-10-01T04:22:57.845Z,99.99
2022-10-01T04:23:57.534Z,99.99
2022-10-01T04:24:57.756Z,99.99
2022-10-01T04:25:57.758Z,99.99
2022-10-01T04:26:57.527Z,99.99
2022-10-01T04:27:57.582Z,99.99
2022-10-01T04:28:57.474Z,99.99
2022-10-01T04:29:57.490Z,99.99
2022-10-01T04:30:58.334Z,99.99
2022-10-01T04:31:57.465Z,99.99
2022-10-01T04:33:00.418Z,99.99
2022-10-01T04:33:57.927Z,99.99
2022-10-01T04:34:57.803Z,99.99
2022-10-01T04:35:58.229Z,99.99
2022-10-01T04:36:58.804Z,99.99
2022-10-01T04:37:58.080Z,99.99
2022-10-01T04:39:01.645Z,99.99
2022-10-01T04:39:58.328Z,99.99
2022-10-01T04:40:57.655Z,99.99
2022-10-01T04:41:57.525Z,99.99
2022-10-01T04:43:10.574Z,99.99
2022-10-01T04:43:58.707Z,99.99
2022-10-01T04:44:58.103Z,99.99
2022-10-01T04:45:57.453Z,99.99
2022-10-01T04:46:57.492Z,99.99
2022-10-01T04:47:57.966Z,99.99
2022-10-01T04:49:03.516Z,99.99
2022-10-01T04:49:57.847Z,99.99
2022-10-01T04:50:57.464Z,99.99
2022-10-01T04:51:57.315Z,99.99
2022-10-01T04:53:19.119Z,99.99
2022-10-01T04:53:57.297Z,99.99
2022-10-01T04:54:57.712Z,99.99
2022-10-01T04:55:57.387Z,99.99
2022-10-01T04:56:57.428Z,99.99
2022-10-01T04:57:57.765Z,99.99
2022-10-01T04:58:57.625Z,99.99
2022-10-01T05:00:02.064Z,99.99
2022-10-01T05:01:02.014Z,99.99
2022-10-01T05:20:51.630Z,99.99
2022-10-01T05:21:44.798Z,99.99
2022-10-01T05:22:44.504Z,99.99
2022-10-01T05:23:44.976Z,99.99
2022-10-01T05:24:44.498Z,99.99
2022-10-01T05:25:44.634Z,99.99
2022-10-01T05:26:44.601Z,99.99
2022-10-01T05:27:44.959Z,99.99
2022-10-01T05:28:44.751Z,99.99
2022-10-01T05:29:44.806Z,99.99
2022-10-01T05:30:44.666Z,99.99
2022-10-01T05:31:44.778Z,99.99
2022-10-01T05:32:45.114Z,99.99
2022-10-01T05:33:45.030Z,99.99
2022-10-01T05:34:44.621Z,99.99
2022-10-01T05:35:44.304Z,99.99
2022-10-01T05:36:44.740Z,99.99
2022-10-01T05:37:44.685Z,99.99
2022-10-01T05:38:44.967Z,99.99
2022-10-01T05:39:44.903Z,99.99
2022-10-01T05:40:44.406Z,99.99
2022-10-01T05:41:44.292Z,99.99
2022-10-01T05:42:45.104Z,99.99
2022-10-01T05:43:45.926Z,99.99
2022-10-01T05:44:44.542Z,99.99
2022-10-01T05:45:44.493Z,99.99
2022-10-01T05:46:44.171Z,99.99
2022-10-01T05:47:44.324Z,99.99
2022-10-01T05:48:44.087Z,99.99
2022-10-01T05:49:44.054Z,99.99
2022-10-01T05:50:44.091Z,99.99
2022-10-01T05:51:44.192Z,99.99
2022-10-01T05:52:44.149Z,99.99
2022-10-01T05:53:49.551Z,99.99
2022-10-01T05:54:45.229Z,99.99
2022-10-01T05:55:44.112Z,99.99
2022-10-01T05:56:44.229Z,99.99
2022-10-01T05:57:44.039Z,99.99
2022-10-01T05:58:44.165Z,99.99
2022-10-01T06:02:02.392Z,99.99
2022-10-01T06:03:03.445Z,99.99
2022-10-01T06:04:03.082Z,99.99
2022-10-01T06:05:09.111Z,99.99
2022-10-01T06:06:06.637Z,99.99
2022-10-01T06:07:11.572Z,99.99
2022-10-01T06:08:02.547Z,99.99
2022-10-01T06:09:04.972Z,99.99
2022-10-01T06:10:25.551Z,99.99
2022-10-01T06:11:12.060Z,99.99
2022-10-01T06:12:04.704Z,99.99
2022-10-01T06:13:06.045Z,99.99
2022-10-01T06:14:01.931Z,99.99
2022-10-01T06:15:01.922Z,99.99
2022-10-01T06:16:01.793Z,99.99
2022-10-01T06:17:02.755Z,99.99
2022-10-01T06:18:02.070Z,99.99
2022-10-01T06:19:01.707Z,99.99
2022-10-01T06:20:01.765Z,99.99
2022-10-01T06:21:01.794Z,99.99
2022-10-01T06:24:24.667Z,99.99
2022-10-01T06:25:36.538Z,99.99
2022-10-01T06:34:22.628Z,99.99
2022-10-01T06:35:23.047Z,99.99
2022-10-01T06:36:23.778Z,99.99
2022-10-01T06:37:22.232Z,99.99
2022-10-01T06:38:22.231Z,99.99
2022-10-01T06:39:21.978Z,99.99
2022-10-01T06:40:21.964Z,99.99
2022-10-01T06:41:22.182Z,99.99
2022-10-01T06:42:21.744Z,99.99
2022-10-01T06:43:21.824Z,99.99
2022-10-01T06:44:21.762Z,99.99
2022-10-01T06:45:21.840Z,99.99
2022-10-01T06:46:21.867Z,99.99
2022-10-01T06:47:22.003Z,99.99
2022-10-01T06:48:21.776Z,99.99
2022-10-01T06:49:21.752Z,99.99
2022-10-01T06:50:21.886Z,99.99
2022-10-01T06:51:21.841Z,99.99
2022-10-01T06:52:21.975Z,99.99
2022-10-01T06:53:22.120Z,99.99
2022-10-01T06:54:21.837Z,99.99
2022-10-01T06:55:22.219Z,99.99
2022-10-01T06:56:23.788Z,99.99
2022-10-01T06:57:21.622Z,99.99
2022-10-01T06:58:21.784Z,99.99
2022-10-01T06:59:21.720Z,99.99
2022-10-01T07:00:21.564Z,99.99
2022-10-01T07:01:21.700Z,99.99
2022-10-01T07:02:21.963Z,99.99
2022-10-01T07:03:21.585Z,99.99
2022-10-01T07:04:21.594Z,99.99
2022-10-01T07:05:21.647Z,99.99
2022-10-01T07:06:21.627Z,99.99
2022-10-01T07:07:26.011Z,99.99
2022-10-01T07:08:22.821Z,99.99
2022-10-01T07:09:21.993Z,99.99
2022-10-01T07:10:21.572Z,99.99
2022-10-01T07:11:21.487Z,99.99
2022-10-01T07:12:21.604Z,99.99
2022-10-01T07:13:21.650Z,99.99
2022-10-01T07:14:21.783Z,99.99
2022-10-01T07:15:21.478Z,99.99
2022-10-01T07:16:21.776Z,99.99
2022-10-01T07:17:21.681Z,99.99
2022-10-01T07:18:21.584Z,99.99
2022-10-01T07:19:21.669Z,99.99
2022-10-01T07:20:22.740Z,99.99
2022-10-01T07:21:21.707Z,99.99
2022-10-01T07:22:21.776Z,99.99
2022-10-01T07:23:21.416Z,99.99
2022-10-01T07:24:21.453Z,99.99
2022-10-01T07:25:21.937Z,99.99
2022-10-01T07:26:21.490Z,99.99
2022-10-01T07:27:21.512Z,99.99
2022-10-01T07:28:21.796Z,99.99
2022-10-01T07:29:21.902Z,99.99
2022-10-01T07:30:21.763Z,99.99
2022-10-01T07:31:21.701Z,99.99
2022-10-01T07:32:21.649Z,99.99
2022-10-01T07:33:21.871Z,99.99
2022-10-01T07:34:22.339Z,99.99
2022-10-01T07:35:21.235Z,99.99
2022-10-01T07:36:21.217Z,99.99
2022-10-01T07:37:21.614Z,99.99
2022-10-01T07:38:21.500Z,99.99
2022-10-01T07:39:21.704Z,99.99
2022-10-01T07:40:21.503Z,99.99
2022-10-01T07:41:21.670Z,99.99
2022-10-01T07:42:21.615Z,99.99
2022-10-01T07:43:21.495Z,99.99
2022-10-01T07:44:21.542Z,99.99
2022-10-01T07:45:22.138Z,99.99
2022-10-01T07:46:25.802Z,99.99
2022-10-01T07:47:21.627Z,99.99
2022-10-01T07:48:21.788Z,99.99
2022-10-01T07:49:22.324Z,99.99
2022-10-01T07:50:21.374Z,99.99
2022-10-01T07:51:21.409Z,99.99
2022-10-01T07:52:21.074Z,99.99
2022-10-01T07:53:21.815Z,99.99
2022-10-01T07:54:21.058Z,99.99
2022-10-01T07:55:21.299Z,99.99
2022-10-01T07:56:22.045Z,99.99
2022-10-01T07:57:20.986Z,99.99
2022-10-01T07:58:21.362Z,99.99
2022-10-01T07:59:21.464Z,99.99
2022-10-01T08:00:21.649Z,99.99
2022-10-01T08:01:22.060Z,99.99
2022-10-01T08:02:21.578Z,99.99
2022-10-01T08:03:21.525Z,99.99
2022-10-01T08:04:21.861Z,99.99
2022-10-01T08:05:21.094Z,99.99
2022-10-01T08:06:25.387Z,99.99
2022-10-01T08:07:21.474Z,99.99
2022-10-01T08:08:21.178Z,99.99
2022-10-01T08:09:22.127Z,99.99
2022-10-01T08:10:20.809Z,99.99
2022-10-01T08:11:21.106Z,99.99
2022-10-01T08:12:21.082Z,99.99
2022-10-01T08:13:21.961Z,99.99
2022-10-01T08:14:21.065Z,99.99
2022-10-01T08:15:21.348Z,99.99
2022-10-01T08:16:21.004Z,99.99
2022-10-01T08:17:22.154Z,99.99
2022-10-01T08:18:21.298Z,99.99
2022-10-01T08:19:20.975Z,99.99
2022-10-01T08:20:21.011Z,99.99
2022-10-01T08:21:21.088Z,99.99
2022-10-01T08:22:21.345Z,99.99
2022-10-01T08:23:20.969Z,99.99
2022-10-01T08:24:20.633Z,99.99
2022-10-01T08:25:21.167Z,99.99
2022-10-01T08:26:21.354Z,99.99
2022-10-01T08:27:21.151Z,99.99
2022-10-01T08:28:20.788Z,99.99
2022-10-01T08:29:22.427Z,99.99
2022-10-01T08:39:22.642Z,99.99
2022-10-01T08:39:55.628Z,99.99
2022-10-01T08:47:50.663Z,99.99
2022-10-01T08:48:53.500Z,99.99
2022-10-01T08:49:50.364Z,99.99
2022-10-01T08:51:10.226Z,99.99
2022-10-01T08:51:49.420Z,99.99
2022-10-01T08:52:49.365Z,99.99
2022-10-01T08:53:49.864Z,99.99
2022-10-01T08:54:49.352Z,99.85
2022-10-01T08:55:48.940Z,99.70
2022-10-01T08:56:48.905Z,99.70
2022-10-01T08:57:49.023Z,99.60
2022-10-01T08:58:48.893Z,99.60
2022-10-01T11:40:31.106Z,80.57
2022-10-01T11:41:30.678Z,80.77
2022-10-01T11:42:30.663Z,80.46
2022-10-01T11:43:30.661Z,79.96
2022-10-01T11:44:30.654Z,80.46
2022-10-01T11:45:30.638Z,80.12
2022-10-01T11:46:30.714Z,79.14
2022-10-01T11:47:30.613Z,78.23
2022-10-01T11:48:30.616Z,78.94
2022-10-01T11:49:30.585Z,78.27
2022-10-01T11:50:30.614Z,78.81
2022-10-01T11:51:30.587Z,79.41
2022-10-01T11:52:30.604Z,80.26
2022-10-01T11:53:30.545Z,80.97
2022-10-01T11:54:30.530Z,81.57
2022-10-01T11:55:30.522Z,81.41
2022-10-01T11:56:30.522Z,82.02
2022-10-01T11:57:30.524Z,81.82
2022-10-01T11:58:30.530Z,82.02
2022-10-01T11:59:30.526Z,82.32
2022-10-01T12:00:30.490Z,82.02
2022-10-01T12:01:30.613Z,82.02
2022-10-01T12:02:30.461Z,81.62
2022-10-01T12:03:30.447Z,81.62
2022-10-01T12:04:30.428Z,81.71
2022-10-01T12:05:30.544Z,82.02
2022-10-01T12:06:33.777Z,81.78
2022-10-01T12:07:30.393Z,81.17
2022-10-01T12:08:30.412Z,81.78
2022-10-01T12:09:30.392Z,82.28
2022-10-01T12:10:30.384Z,81.88
2022-10-01T12:11:30.447Z,81.57
2022-10-01T12:12:30.365Z,81.17
2022-10-01T12:13:30.333Z,81.68
2022-10-01T12:14:30.313Z,81.98
2022-10-01T12:15:30.316Z,81.94
2022-10-01T12:16:30.318Z,81.34
2022-10-01T12:17:30.290Z,81.48
2022-10-01T12:18:30.333Z,81.78
2022-10-01T12:19:30.283Z,81.98
2022-10-01T12:20:30.285Z,81.78
2022-10-01T12:21:30.251Z,82.18
2022-10-01T12:22:30.246Z,82.89
2022-10-01T12:23:30.234Z,83.29
2022-10-01T12:24:30.208Z,83.40
2022-10-01T12:25:30.194Z,83.40
2022-10-01T12:26:30.222Z,82.89
2022-10-01T12:27:30.222Z,81.94
2022-10-01T12:28:30.260Z,80.25
2022-10-01T12:29:30.180Z,80.72
2022-10-01T12:30:30.155Z,80.33
2022-10-01T12:31:30.177Z,76.67
2022-10-01T12:32:30.137Z,76.14
2022-10-01T12:33:30.137Z,76.37
2022-10-01T12:34:30.126Z,77.17
2022-10-01T12:35:31.049Z,76.17
2022-10-01T12:36:30.154Z,76.00
2022-10-01T12:37:30.084Z,75.80
2022-10-01T12:38:30.080Z,75.36
2022-10-01T12:39:30.062Z,74.82
2022-10-01T12:40:30.067Z,74.08
2022-10-01T12:41:30.027Z,74.02
2022-10-01T12:42:30.482Z,74.29
2022-10-01T12:43:30.008Z,74.35
2022-10-01T12:44:30.007Z,75.56
2022-10-01T12:45:29.998Z,74.49
2022-10-01T12:46:30.037Z,75.10
2022-10-01T12:47:29.965Z,73.95
2022-10-01T12:48:29.981Z,73.82
2022-10-01T12:49:29.947Z,73.14
2022-10-01T12:50:30.189Z,71.90
2022-10-01T12:51:29.919Z,71.33
2022-10-01T12:52:29.914Z,72.57
2022-10-01T12:53:29.896Z,72.97
2022-10-01T12:54:29.892Z,72.03
2022-10-01T12:55:29.934Z,71.30
2022-10-01T12:56:30.199Z,71.36
2022-10-01T12:57:29.872Z,71.03
2022-10-01T12:58:29.974Z,69.72
2022-10-01T12:59:29.961Z,68.82
2022-10-01T13:00:29.848Z,69.99
2022-10-01T13:01:29.916Z,70.19
2022-10-01T13:02:29.846Z,69.96
2022-10-01T13:03:29.813Z,69.06
2022-10-01T13:04:30.782Z,68.62
2022-10-01T13:05:29.768Z,67.82
2022-10-01T13:06:29.792Z,66.98
2022-10-01T13:07:29.756Z,67.58
2022-10-01T13:08:29.993Z,67.68
2022-10-01T13:09:29.739Z,68.21
2022-10-01T13:10:29.733Z,67.94
2022-10-01T13:11:29.741Z,68.18
2022-10-01T13:12:29.707Z,69.76
2022-10-01T13:13:29.725Z,69.72
2022-10-01T13:14:29.689Z,70.96
2022-10-01T13:15:29.666Z,71.00
2022-10-01T13:16:29.756Z,72.14
2022-10-01T13:17:34.465Z,72.98
2022-10-01T13:18:30.701Z,73.42
2022-10-01T13:19:29.638Z,73.92
2022-10-01T13:20:29.615Z,74.16
2022-10-01T13:21:29.662Z,74.26
2022-10-01T13:22:29.795Z,74.80
2022-10-01T13:23:29.593Z,75.40
2022-10-01T13:24:29.615Z,75.84
2022-10-01T13:25:29.745Z,78.91
2022-10-01T13:26:29.573Z,80.06
2022-10-01T13:27:29.548Z,82.08
2022-10-01T13:28:29.684Z,82.73
2022-10-01T13:29:29.533Z,82.46
2022-10-01T13:30:30.046Z,83.47
2022-10-01T13:31:29.614Z,83.72
2022-10-01T13:32:29.520Z,84.83
2022-10-01T13:33:29.505Z,85.13
2022-10-01T13:34:29.461Z,85.24
2022-10-01T13:35:35.228Z,83.75
2022-10-01T13:36:30.462Z,87.61
2022-10-01T13:37:29.788Z,91.14
2022-10-01T13:38:29.499Z,93.57
2022-10-01T13:39:30.348Z,95.51
2022-10-01T13:40:29.458Z,96.78
2022-10-01T13:41:29.414Z,97.19
2022-10-01T13:42:29.385Z,97.90
2022-10-01T13:43:29.513Z,97.95
2022-10-01T13:44:29.444Z,98.15
2022-10-01T13:45:29.340Z,98.30
2022-10-01T13:46:29.383Z,98.61
2022-10-01T13:47:29.320Z,98.81
2022-10-01T13:48:29.333Z,99.02
2022-10-01T13:49:29.359Z,98.71
2022-10-01T13:50:29.378Z,98.71
2022-10-01T13:51:29.292Z,98.71
2022-10-01T13:52:29.280Z,98.81
2022-10-01T13:53:29.369Z,99.02
2022-10-01T13:54:29.268Z,99.27
2022-10-01T13:55:29.290Z,99.52
2022-10-01T13:56:29.321Z,99.63
2022-10-01T13:57:29.226Z,99.73
2022-10-01T13:58:29.198Z,99.84
2022-10-01T13:59:29.230Z,99.93
2022-10-01T14:00:29.195Z,99.99
2022-10-01T14:01:29.229Z,99.99
2022-10-01T14:02:29.261Z,99.99
2022-10-01T14:03:29.148Z,99.99
2022-10-01T14:04:29.190Z,99.99
2022-10-01T14:05:29.132Z,99.99
2022-10-01T14:06:29.134Z,99.99
2022-10-01T14:07:29.106Z,99.99
2022-10-01T14:08:29.110Z,99.99
2022-10-01T14:09:29.155Z,99.99
2022-10-01T14:10:29.087Z,99.99
2022-10-01T14:11:29.073Z,99.99
2022-10-01T14:12:29.079Z,99.99
2022-10-01T14:13:29.060Z,99.99
2022-10-01T14:14:29.045Z,99.99
2022-10-01T14:15:29.178Z,99.99
2022-10-01T14:16:29.020Z,99.99
2022-10-01T14:17:29.009Z,99.99
2022-10-01T14:18:29.000Z,99.99
2022-10-01T14:19:29.016Z,99.99
2022-10-01T14:20:28.983Z,99.99
2022-10-01T14:21:28.975Z,99.99
2022-10-01T14:22:28.960Z,99.99
2022-10-01T14:23:29.055Z,99.99
2022-10-01T14:24:28.952Z,99.99
2022-10-01T14:25:28.927Z,99.99
2022-10-01T14:26:28.908Z,98.80
2022-10-01T14:27:28.910Z,97.38
2022-10-01T14:28:28.897Z,96.97
2022-10-01T14:29:28.866Z,96.87
2022-10-01T14:30:28.858Z,96.15
2022-10-01T14:31:28.992Z,95.90
2022-10-01T14:32:28.841Z,96.55
2022-10-01T14:33:28.846Z,96.66
2022-10-01T14:34:28.842Z,97.11
2022-10-01T14:35:28.904Z,97.41
2022-10-01T14:36:28.850Z,98.08
2022-10-01T14:37:28.796Z,97.53
2022-10-01T14:38:28.793Z,95.83
2022-10-01T14:39:28.843Z,93.45
2022-10-01T14:40:28.779Z,91.64
2022-10-01T14:41:28.985Z,89.92
2022-10-01T14:42:28.918Z,87.51
2022-10-01T14:43:28.750Z,86.29
2022-10-01T14:44:28.704Z,85.05
2022-10-01T14:45:28.751Z,87.51
2022-10-01T14:46:29.039Z,89.31
2022-10-01T14:47:28.679Z,90.27
2022-10-01T14:48:28.734Z,91.43
2022-10-01T14:49:28.669Z,92.10
2022-10-01T14:50:28.650Z,92.41
2022-10-01T14:51:28.707Z,92.32
2022-10-01T14:52:28.623Z,89.65
2022-10-01T14:53:28.629Z,86.73
2022-10-01T14:54:28.603Z,86.96
2022-10-01T14:55:28.616Z,84.28
2022-10-01T14:56:28.586Z,82.42
2022-10-01T14:57:28.574Z,82.28
2022-10-01T14:58:28.564Z,81.34
2022-10-01T14:59:28.552Z,81.13
2022-10-01T15:00:28.527Z,79.82
2022-10-01T15:01:28.532Z,80.79
2022-10-01T15:02:30.011Z,79.68
2022-10-01T15:03:28.568Z,79.24
2022-10-01T15:04:28.668Z,78.20
2022-10-01T15:05:28.558Z,78.97
2022-10-01T15:06:28.487Z,78.50
2022-10-01T15:07:28.515Z,79.08
2022-10-01T15:08:28.465Z,79.74
2022-10-01T15:09:28.562Z,78.50
2022-10-01T15:10:28.792Z,78.96
2022-10-01T15:11:28.428Z,76.75
2022-10-01T15:12:28.435Z,75.84
2022-10-01T15:13:28.437Z,76.75
2022-10-01T15:14:28.394Z,74.73
2022-10-01T15:15:28.417Z,75.54
2022-10-01T15:16:28.436Z,75.74
2022-10-01T15:17:28.401Z,77.21
2022-10-01T15:18:28.381Z,74.52
2022-10-01T15:19:28.379Z,78.30
2022-10-01T15:20:28.389Z,80.54
2022-10-01T15:21:28.320Z,82.54
2022-10-01T15:22:28.507Z,83.80
2022-10-01T15:23:28.302Z,83.90
2022-10-01T15:24:28.519Z,85.36
2022-10-01T15:25:28.289Z,85.90
2022-10-01T15:26:28.628Z,86.76
2022-10-01T15:27:28.896Z,87.87
2022-10-01T15:28:28.307Z,88.32
2022-10-01T15:29:28.239Z,89.03
2022-10-01T15:30:28.214Z,89.74
2022-10-01T15:31:28.254Z,89.03
2022-10-01T15:32:28.204Z,89.19
2022-10-01T15:33:28.183Z,88.75
2022-10-01T15:34:28.173Z,88.28
2022-10-01T15:35:28.164Z,89.15
2022-10-01T15:36:28.161Z,87.40
2022-10-01T15:37:28.147Z,85.44
2022-10-01T15:38:28.148Z,84.22
2022-10-01T15:39:28.124Z,83.37
2022-10-01T15:40:28.110Z,82.90
2022-10-01T15:41:39.884Z,84.27
2022-10-01T15:42:29.121Z,84.42
2022-10-01T15:43:28.088Z,85.33
2022-10-01T15:44:28.936Z,83.33
2022-10-01T15:45:28.071Z,81.27
2022-10-01T15:46:28.086Z,79.72
2022-10-01T15:47:28.032Z,80.06
2022-10-01T15:48:28.320Z,81.51
2022-10-01T15:49:28.092Z,81.27
2022-10-01T15:50:28.016Z,79.75
2022-10-01T15:51:27.993Z,80.53
2022-10-01T15:52:27.974Z,78.61
2022-10-01T15:53:27.971Z,78.88
2022-10-01T15:54:27.955Z,77.36
2022-10-01T15:55:27.958Z,78.47
2022-10-01T15:56:27.932Z,79.69
2022-10-01T15:57:28.004Z,81.49
2022-10-01T15:58:27.917Z,82.95
2022-10-01T15:59:27.897Z,83.55
2022-10-01T16:00:28.007Z,82.26
2022-10-01T16:01:27.951Z,80.57
2022-10-01T16:02:27.914Z,79.62
2022-10-01T16:03:27.859Z,78.57
2022-10-01T16:04:27.855Z,78.27
2022-10-01T16:05:27.847Z,77.56
2022-10-01T16:06:27.824Z,78.27
2022-10-01T16:07:27.810Z,77.76
2022-10-01T16:08:27.800Z,78.53
2022-10-01T16:09:27.786Z,77.22
2022-10-01T16:10:27.777Z,77.42
2022-10-01T16:11:27.769Z,77.73
2022-10-01T16:12:27.765Z,76.82
2022-10-01T16:13:28.179Z,76.65
2022-10-01T16:14:27.743Z,77.76
2022-10-01T16:15:27.734Z,78.17
2022-10-01T16:16:27.779Z,78.88
2022-10-01T16:17:27.707Z,78.27
2022-10-01T16:18:27.707Z,77.86
2022-10-01T16:19:27.739Z,78.81
2022-10-01T16:20:28.234Z,80.10
2022-10-01T16:21:27.676Z,81.15
2022-10-01T16:22:27.662Z,81.90
2022-10-01T16:23:27.666Z,82.81
2022-10-01T16:24:27.645Z,83.76
2022-10-01T16:25:27.629Z,84.61
2022-10-01T16:26:27.620Z,85.86
2022-10-01T16:27:27.615Z,86.51
2022-10-01T16:28:27.654Z,87.22
2022-10-01T16:29:27.886Z,87.77
2022-10-01T16:30:27.575Z,87.87
2022-10-01T16:31:27.616Z,87.97
2022-10-01T16:32:27.673Z,88.52
2022-10-01T16:33:27.559Z,88.93
2022-10-01T16:34:27.545Z,88.93
2022-10-01T16:35:27.521Z,88.73
2022-10-01T16:36:27.512Z,88.62
2022-10-01T16:37:28.361Z,88.97
2022-10-01T16:38:27.540Z,88.97
2022-10-01T16:39:27.478Z,88.97
2022-10-01T16:40:27.467Z,89.17
2022-10-01T16:41:27.481Z,89.28
2022-10-01T16:42:27.479Z,89.37
2022-10-01T16:43:27.436Z,89.17
2022-10-01T16:44:27.431Z,88.67
2022-10-01T16:45:27.441Z,89.01
2022-10-01T16:46:27.418Z,89.01
2022-10-01T16:47:27.391Z,89.62
2022-10-01T16:48:27.406Z,89.62
2022-10-01T16:49:27.383Z,89.72
2022-10-01T16:50:27.631Z,90.17
2022-10-01T16:51:27.349Z,90.27
2022-10-01T16:52:27.346Z,90.48
2022-10-01T16:53:27.348Z,90.48